sensor_id;sensor_type;location;lat;lon;timestamp;temperature;humidity
23532;DHT22;11943;52.270;20.978;2022-09-21T00:01:44;9.90;99.90
23532;DHT22;11943;52.270;20.978;2022-09-21T00:04:09;9.90;99.90
23532;DHT22;11943;52.270;20.978;2022-09-21T00:06:35;9.90;99.90
23532;DHT22;11943;52.270;20.978;2022-09-21T00:09:02;10.00;99.90
23532;DHT22;11943;52.270;20.978;2022-09-21T00:11:30;10.00;99.90
23532;DHT22;11943;52.270;20.978;2022-09-21T00:13:58;10.00;99.90
23532;DHT22;11943;52.270;20.978;2022-09-21T00:16:25;10.00;99.90
23532;DHT22;11943;52.270;20.978;2022-09-21T00:18:50;10.00;99.90
23532;DHT22;11943;52.270;20.978;2022-09-21T00:21:16;10.00;99.90
23532;DHT22;11943;52.270;20.978;2022-09-21T00:23:42;10.00;99.90
23532;DHT22;11943;52.270;20.978;2022-09-21T00:26:09;10.00;99.90
23532;DHT22;11943;52.270;20.978;2022-09-21T00:28:35;10.10;99.90
23532;DHT22;11943;52.270;20.978;2022-09-21T00:31:03;10.10;99.90
23532;DHT22;11943;52.270;20.978;2022-09-21T00:33:29;10.10;99.90
23532;DHT22;11943;52.270;20.978;2022-09-21T00:35:55;10.10;99.90
23532;DHT22;11943;52.270;20.978;2022-09-21T00:38:20;10.00;99.90
23532;DHT22;11943;52.270;20.978;2022-09-21T00:40:46;10.00;99.90
23532;DHT22;11943;52.270;20.978;2022-09-21T00:43:15;10.00;99.90
23532;DHT22;11943;52.270;20.978;2022-09-21T00:45:41;10.00;99.90
23532;DHT22;11943;52.270;20.978;2022-09-21T00:48:07;10.00;99.90
23532;DHT22;11943;52.270;20.978;2022-09-21T00:50:32;10.10;99.90
23532;DHT22;11943;52.270;20.978;2022-09-21T00:52:59;10.10;99.90
23532;DHT22;11943;52.270;20.978;2022-09-21T00:55:25;10.10;99.90
23532;DHT22;11943;52.270;20.978;2022-09-21T00:57:54;10.10;99.90
23532;DHT22;11943;52.270;20.978;2022-09-21T01:00:21;10.10;99.90
23532;DHT22;11943;52.270;20.978;2022-09-21T01:02:47;10.20;99.90
23532;DHT22;11943;52.270;20.978;2022-09-21T01:05:12;10.20;99.90
23532;DHT22;11943;52.270;20.978;2022-09-21T01:07:39;10.20;99.90
23532;DHT22;11943;52.270;20.978;2022-09-21T01:10:07;10.10;99.90
23532;DHT22;11943;52.270;20.978;2022-09-21T01:22:43;10.10;99.90
23532;DHT22;11943;52.270;20.978;2022-09-21T01:28:00;10.20;99.90
23532;DHT22;11943;52.270;20.978;2022-09-21T01:30:28;10.20;99.90
23532;DHT22;11943;52.270;20.978;2022-09-21T01:33:04;10.30;99.90
23532;DHT22;11943;52.270;20.978;2022-09-21T01:35:42;10.20;99.90
23532;DHT22;11943;52.270;20.978;2022-09-21T01:38:10;10.20;99.90
23532;DHT22;11943;52.270;20.978;2022-09-21T01:40:37;10.60;99.90
23532;DHT22;11943;52.270;20.978;2022-09-21T01:43:04;10.20;99.90
23532;DHT22;11943;52.270;20.978;2022-09-21T01:45:32;10.20;99.90
23532;DHT22;11943;52.270;20.978;2022-09-21T01:47:59;10.30;99.90
23532;DHT22;11943;52.270;20.978;2022-09-21T01:50:27;10.20;99.90
23532;DHT22;11943;52.270;20.978;2022-09-21T01:52:59;10.20;99.90
23532;DHT22;11943;52.270;20.978;2022-09-21T01:55:27;10.20;99.90
23532;DHT22;11943;52.270;20.978;2022-09-21T02:00:19;10.20;99.90
23532;DHT22;11943;52.270;20.978;2022-09-21T02:03:46;10.20;99.90
23532;DHT22;11943;52.270;20.978;2022-09-21T02:05:39;10.20;99.90
23532;DHT22;11943;52.270;20.978;2022-09-21T02:08:06;10.50;99.90
23532;DHT22;11943;52.270;20.978;2022-09-21T02:10:46;10.20;99.90
23532;DHT22;11943;52.270;20.978;2022-09-21T02:13:12;10.30;99.90
23532;DHT22;11943;52.270;20.978;2022-09-21T02:18:13;10.20;99.90
23532;DHT22;11943;52.270;20.978;2022-09-21T02:20:53;10.30;99.90
23532;DHT22;11943;52.270;20.978;2022-09-21T02:26:02;10.20;99.90
23532;DHT22;11943;52.270;20.978;2022-09-21T02:31:05;10.20;99.90
23532;DHT22;11943;52.270;20.978;2022-09-21T02:33:43;10.30;99.90
23532;DHT22;11943;52.270;20.978;2022-09-21T02:36:14;10.20;99.90
23532;DHT22;11943;52.270;20.978;2022-09-21T02:41:18;10.30;99.90
23532;DHT22;11943;52.270;20.978;2022-09-21T02:43:49;10.30;99.90
23532;DHT22;11943;52.270;20.978;2022-09-21T02:46:21;10.30;99.90
23532;DHT22;11943;52.270;20.978;2022-09-21T02:48:51;10.30;99.90
23532;DHT22;11943;52.270;20.978;2022-09-21T02:51:39;10.30;99.90
23532;DHT22;11943;52.270;20.978;2022-09-21T02:54:03;10.30;99.90
23532;DHT22;11943;52.270;20.978;2022-09-21T02:56:30;10.20;99.90
23532;DHT22;11943;52.270;20.978;2022-09-21T02:58:57;10.30;99.90
23532;DHT22;11943;52.270;20.978;2022-09-21T03:01:23;10.20;99.90
23532;DHT22;11943;52.270;20.978;2022-09-21T03:03:50;10.20;99.90
23532;DHT22;11943;52.270;20.978;2022-09-21T03:06:16;10.20;99.90
23532;DHT22;11943;52.270;20.978;2022-09-21T03:08:41;10.30;99.90
23532;DHT22;11943;52.270;20.978;2022-09-21T03:11:06;10.20;99.90
23532;DHT22;11943;52.270;20.978;2022-09-21T03:13:32;10.30;99.90
23532;DHT22;11943;52.270;20.978;2022-09-21T03:15:58;10.30;99.90
23532;DHT22;11943;52.270;20.978;2022-09-21T03:18:24;10.30;99.90
23532;DHT22;11943;52.270;20.978;2022-09-21T03:20:49;10.30;99.90
23532;DHT22;11943;52.270;20.978;2022-09-21T03:23:15;10.30;99.90
23532;DHT22;11943;52.270;20.978;2022-09-21T03:25:42;10.30;99.90
23532;DHT22;11943;52.270;20.978;2022-09-21T03:28:08;10.30;99.90
23532;DHT22;11943;52.270;20.978;2022-09-21T03:30:35;10.20;99.90
23532;DHT22;11943;52.270;20.978;2022-09-21T03:33:00;10.40;99.90
23532;DHT22;11943;52.270;20.978;2022-09-21T03:35:26;10.30;99.90
23532;DHT22;11943;52.270;20.978;2022-09-21T03:37:51;10.40;99.90
23532;DHT22;11943;52.270;20.978;2022-09-21T03:40:17;10.60;99.90
23532;DHT22;11943;52.270;20.978;2022-09-21T03:42:43;10.50;99.90
23532;DHT22;11943;52.270;20.978;2022-09-21T03:45:10;10.40;99.90
23532;DHT22;11943;52.270;20.978;2022-09-21T03:47:36;10.40;99.90
23532;DHT22;11943;52.270;20.978;2022-09-21T03:50:02;11.20;99.90
23532;DHT22;11943;52.270;20.978;2022-09-21T03:52:28;10.40;99.90
23532;DHT22;11943;52.270;20.978;2022-09-21T03:54:53;10.40;99.90
23532;DHT22;11943;52.270;20.978;2022-09-21T03:57:19;10.40;99.90
23532;DHT22;11943;52.270;20.978;2022-09-21T03:59:45;10.40;99.90
23532;DHT22;11943;52.270;20.978;2022-09-21T04:02:10;10.40;99.90
23532;DHT22;11943;52.270;20.978;2022-09-21T04:04:36;10.40;99.90
23532;DHT22;11943;52.270;20.978;2022-09-21T04:07:01;10.40;99.90
23532;DHT22;11943;52.270;20.978;2022-09-21T04:09:27;10.50;99.90
23532;DHT22;11943;52.270;20.978;2022-09-21T04:11:52;10.50;99.90
23532;DHT22;11943;52.270;20.978;2022-09-21T04:14:18;10.50;99.90
23532;DHT22;11943;52.270;20.978;2022-09-21T04:16:44;10.50;99.90
23532;DHT22;11943;52.270;20.978;2022-09-21T04:19:09;10.50;99.90
23532;DHT22;11943;52.270;20.978;2022-09-21T04:21:34;10.60;99.90
23532;DHT22;11943;52.270;20.978;2022-09-21T04:24:00;11.20;99.90
23532;DHT22;11943;52.270;20.978;2022-09-21T04:26:27;10.50;99.90
23532;DHT22;11943;52.270;20.978;2022-09-21T04:28:53;10.60;99.90
23532;DHT22;11943;52.270;20.978;2022-09-21T04:31:19;10.60;99.90
23532;DHT22;11943;52.270;20.978;2022-09-21T04:33:48;10.60;99.90
23532;DHT22;11943;52.270;20.978;2022-09-21T04:36:15;10.60;99.90
23532;DHT22;11943;52.270;20.978;2022-09-21T04:38:40;10.60;99.90
23532;DHT22;11943;52.270;20.978;2022-09-21T04:41:06;11.00;99.90
23532;DHT22;11943;52.270;20.978;2022-09-21T04:43:31;10.70;99.90
23532;DHT22;11943;52.270;20.978;2022-09-21T04:45:57;10.60;99.90
23532;DHT22;11943;52.270;20.978;2022-09-21T04:48:23;10.70;99.90
23532;DHT22;11943;52.270;20.978;2022-09-21T04:50:49;10.80;99.90
23532;DHT22;11943;52.270;20.978;2022-09-21T04:53:14;10.70;99.90
23532;DHT22;11943;52.270;20.978;2022-09-21T04:55:40;10.70;99.90
23532;DHT22;11943;52.270;20.978;2022-09-21T04:58:05;10.70;99.90
23532;DHT22;11943;52.270;20.978;2022-09-21T05:00:31;10.70;99.90
23532;DHT22;11943;52.270;20.978;2022-09-21T05:02:56;10.70;99.90
23532;DHT22;11943;52.270;20.978;2022-09-21T05:05:22;10.70;99.90
23532;DHT22;11943;52.270;20.978;2022-09-21T05:07:48;10.80;99.90
23532;DHT22;11943;52.270;20.978;2022-09-21T05:10:13;10.70;99.90
23532;DHT22;11943;52.270;20.978;2022-09-21T05:12:39;10.80;99.90
23532;DHT22;11943;52.270;20.978;2022-09-21T05:15:06;10.80;99.90
23532;DHT22;11943;52.270;20.978;2022-09-21T05:17:32;10.80;99.90
23532;DHT22;11943;52.270;20.978;2022-09-21T05:19:58;10.80;99.90
23532;DHT22;11943;52.270;20.978;2022-09-21T05:22:23;10.80;99.90
23532;DHT22;11943;52.270;20.978;2022-09-21T05:24:49;10.90;99.90
23532;DHT22;11943;52.270;20.978;2022-09-21T05:27:14;10.80;99.90
23532;DHT22;11943;52.270;20.978;2022-09-21T05:29:40;11.20;99.90
23532;DHT22;11943;52.270;20.978;2022-09-21T05:32:08;10.90;99.90
23532;DHT22;11943;52.270;20.978;2022-09-21T05:39:50;11.10;99.90
23532;DHT22;11943;52.270;20.978;2022-09-21T05:42:16;11.10;99.90
23532;DHT22;11943;52.270;20.978;2022-09-21T05:44:42;11.90;99.90
23532;DHT22;11943;52.270;20.978;2022-09-21T05:47:42;11.10;99.90
23532;DHT22;11943;52.270;20.978;2022-09-21T05:52:37;11.10;99.90
23532;DHT22;11943;52.270;20.978;2022-09-21T06:02:49;11.20;99.90
23532;DHT22;11943;52.270;20.978;2022-09-21T06:05:18;11.30;99.90
23532;DHT22;11943;52.270;20.978;2022-09-21T06:07:44;11.30;99.90
23532;DHT22;11943;52.270;20.978;2022-09-21T06:10:10;11.30;99.90
23532;DHT22;11943;52.270;20.978;2022-09-21T06:12:36;11.20;99.90
23532;DHT22;11943;52.270;20.978;2022-09-21T06:15:02;11.20;99.90
23532;DHT22;11943;52.270;20.978;2022-09-21T06:17:28;11.20;99.90
23532;DHT22;11943;52.270;20.978;2022-09-21T06:19:53;11.30;99.90
23532;DHT22;11943;52.270;20.978;2022-09-21T06:22:19;11.30;99.90
23532;DHT22;11943;52.270;20.978;2022-09-21T06:24:44;11.30;99.90
23532;DHT22;11943;52.270;20.978;2022-09-21T06:27:10;11.40;99.90
23532;DHT22;11943;52.270;20.978;2022-09-21T06:29:35;11.40;99.90
23532;DHT22;11943;52.270;20.978;2022-09-21T06:32:01;11.40;99.90
23532;DHT22;11943;52.270;20.978;2022-09-21T06:34:27;11.50;99.90
23532;DHT22;11943;52.270;20.978;2022-09-21T06:36:52;11.60;99.90
23532;DHT22;11943;52.270;20.978;2022-09-21T06:39:18;11.50;99.90
23532;DHT22;11943;52.270;20.978;2022-09-21T06:41:43;11.60;99.90
23532;DHT22;11943;52.270;20.978;2022-09-21T06:44:09;11.70;99.90
23532;DHT22;11943;52.270;20.978;2022-09-21T06:46:34;11.80;99.90
23532;DHT22;11943;52.270;20.978;2022-09-21T06:49:00;11.90;99.90
23532;DHT22;11943;52.270;20.978;2022-09-21T06:51:25;11.80;99.90
23532;DHT22;11943;52.270;20.978;2022-09-21T06:53:54;11.80;99.90
23532;DHT22;11943;52.270;20.978;2022-09-21T06:56:20;11.80;99.90
23532;DHT22;11943;52.270;20.978;2022-09-21T06:58:46;11.80;99.90
23532;DHT22;11943;52.270;20.978;2022-09-21T07:01:12;11.90;99.90
23532;DHT22;11943;52.270;20.978;2022-09-21T07:03:39;11.90;99.90
23532;DHT22;11943;52.270;20.978;2022-09-21T07:06:05;11.90;99.90
23532;DHT22;11943;52.270;20.978;2022-09-21T07:08:31;11.90;99.90
23532;DHT22;11943;52.270;20.978;2022-09-21T07:10:57;12.00;99.90
23532;DHT22;11943;52.270;20.978;2022-09-21T07:13:22;12.00;99.90
23532;DHT22;11943;52.270;20.978;2022-09-21T07:15:48;12.10;99.90
23532;DHT22;11943;52.270;20.978;2022-09-21T07:18:14;12.20;99.90
23532;DHT22;11943;52.270;20.978;2022-09-21T07:20:39;12.20;99.90
23532;DHT22;11943;52.270;20.978;2022-09-21T07:23:15;12.30;99.90
23532;DHT22;11943;52.270;20.978;2022-09-21T07:25:41;12.30;99.90
23532;DHT22;11943;52.270;20.978;2022-09-21T07:28:06;12.30;99.90
23532;DHT22;11943;52.270;20.978;2022-09-21T07:30:32;12.40;99.90
23532;DHT22;11943;52.270;20.978;2022-09-21T07:32:58;12.50;99.90
23532;DHT22;11943;52.270;20.978;2022-09-21T07:35:23;12.50;99.90
23532;DHT22;11943;52.270;20.978;2022-09-21T07:37:49;12.50;99.90
23532;DHT22;11943;52.270;20.978;2022-09-21T07:40:14;12.50;99.90
23532;DHT22;11943;52.270;20.978;2022-09-21T07:42:40;12.60;99.90
23532;DHT22;11943;52.270;20.978;2022-09-21T07:45:05;12.80;99.90
23532;DHT22;11943;52.270;20.978;2022-09-21T07:47:31;13.10;99.90
23532;DHT22;11943;52.270;20.978;2022-09-21T07:49:56;13.30;99.90
23532;DHT22;11943;52.270;20.978;2022-09-21T07:52:22;13.20;99.90
23532;DHT22;11943;52.270;20.978;2022-09-21T07:54:47;13.20;99.90
23532;DHT22;11943;52.270;20.978;2022-09-21T07:57:13;13.40;99.90
23532;DHT22;11943;52.270;20.978;2022-09-21T08:00:17;13.60;99.90
23532;DHT22;11943;52.270;20.978;2022-09-21T08:02:42;13.70;99.90
23532;DHT22;11943;52.270;20.978;2022-09-21T08:05:08;13.90;99.90
23532;DHT22;11943;52.270;20.978;2022-09-21T08:07:33;14.00;99.90
23532;DHT22;11943;52.270;20.978;2022-09-21T08:09:59;14.00;99.90
23532;DHT22;11943;52.270;20.978;2022-09-21T08:12:24;14.00;99.90
23532;DHT22;11943;52.270;20.978;2022-09-21T08:14:50;13.80;99.90
23532;DHT22;11943;52.270;20.978;2022-09-21T08:17:16;13.70;99.90
23532;DHT22;11943;52.270;20.978;2022-09-21T08:19:41;13.70;99.90
23532;DHT22;11943;52.270;20.978;2022-09-21T08:22:07;14.00;99.90
23532;DHT22;11943;52.270;20.978;2022-09-21T08:24:32;13.70;99.90
23532;DHT22;11943;52.270;20.978;2022-09-21T08:26:58;13.60;99.90
23532;DHT22;11943;52.270;20.978;2022-09-21T08:29:24;13.70;99.90
23532;DHT22;11943;52.270;20.978;2022-09-21T08:31:50;13.70;99.90
23532;DHT22;11943;52.270;20.978;2022-09-21T08:34:16;13.40;99.90
23532;DHT22;11943;52.270;20.978;2022-09-21T08:36:44;13.40;99.90
23532;DHT22;11943;52.270;20.978;2022-09-21T08:39:10;13.60;99.90
23532;DHT22;11943;52.270;20.978;2022-09-21T08:41:54;13.20;99.90
23532;DHT22;11943;52.270;20.978;2022-09-21T08:44:26;13.20;99.90
23532;DHT22;11943;52.270;20.978;2022-09-21T08:49:24;13.30;99.90
23532;DHT22;11943;52.270;20.978;2022-09-21T08:51:58;13.50;99.90
23532;DHT22;11943;52.270;20.978;2022-09-21T08:56:50;13.60;99.90
23532;DHT22;11943;52.270;20.978;2022-09-21T08:59:15;13.60;99.90
23532;DHT22;11943;52.270;20.978;2022-09-21T09:01:58;13.70;99.90
23532;DHT22;11943;52.270;20.978;2022-09-21T09:04:26;13.70;99.90
23532;DHT22;11943;52.270;20.978;2022-09-21T09:07:16;13.80;99.90
23532;DHT22;11943;52.270;20.978;2022-09-21T09:12:22;13.90;99.90
23532;DHT22;11943;52.270;20.978;2022-09-21T09:18:02;14.20;99.90
23532;DHT22;11943;52.270;20.978;2022-09-21T09:22:44;13.80;99.90
23532;DHT22;11943;52.270;20.978;2022-09-21T09:25:14;13.70;99.90
23532;DHT22;11943;52.270;20.978;2022-09-21T09:27:41;13.80;99.90
23532;DHT22;11943;52.270;20.978;2022-09-21T09:30:20;14.00;99.90
23532;DHT22;11943;52.270;20.978;2022-09-21T09:33:01;14.10;99.90
23532;DHT22;11943;52.270;20.978;2022-09-21T09:35:31;14.10;99.90
23532;DHT22;11943;52.270;20.978;2022-09-21T09:40:55;14.40;99.90
23532;DHT22;11943;52.270;20.978;2022-09-21T09:46:15;14.40;99.90
23532;DHT22;11943;52.270;20.978;2022-09-21T09:51:26;14.20;99.90
23532;DHT22;11943;52.270;20.978;2022-09-21T09:53:51;14.20;99.90
23532;DHT22;11943;52.270;20.978;2022-09-21T09:56:19;14.20;99.90
23532;DHT22;11943;52.270;20.978;2022-09-21T09:58:49;14.60;99.90
23532;DHT22;11943;52.270;20.978;2022-09-21T10:04:04;14.90;99.90
23532;DHT22;11943;52.270;20.978;2022-09-21T10:06:31;14.80;99.90
23532;DHT22;11943;52.270;20.978;2022-09-21T10:08:57;14.80;99.90
23532;DHT22;11943;52.270;20.978;2022-09-21T10:11:22;15.10;99.90
23532;DHT22;11943;52.270;20.978;2022-09-21T10:13:59;15.70;99.90
23532;DHT22;11943;52.270;20.978;2022-09-21T10:16:31;15.80;99.90
23532;DHT22;11943;52.270;20.978;2022-09-21T10:18:57;15.60;99.90
23532;DHT22;11943;52.270;20.978;2022-09-21T10:21:33;15.40;99.90
23532;DHT22;11943;52.270;20.978;2022-09-21T10:26:31;15.30;99.90
23532;DHT22;11943;52.270;20.978;2022-09-21T10:28:59;15.50;99.90
23532;DHT22;11943;52.270;20.978;2022-09-21T10:31:26;15.90;99.90
23532;DHT22;11943;52.270;20.978;2022-09-21T10:34:04;15.90;99.90
23532;DHT22;11943;52.270;20.978;2022-09-21T10:36:34;16.10;99.90
23532;DHT22;11943;52.270;20.978;2022-09-21T10:39:19;16.10;99.90
23532;DHT22;11943;52.270;20.978;2022-09-21T10:41:49;16.10;99.90
23532;DHT22;11943;52.270;20.978;2022-09-21T10:44:15;15.80;99.90
23532;DHT22;11943;52.270;20.978;2022-09-21T10:46:41;15.50;99.90
23532;DHT22;11943;52.270;20.978;2022-09-21T10:49:12;15.60;99.90
23532;DHT22;11943;52.270;20.978;2022-09-21T10:51:39;15.80;99.90
23532;DHT22;11943;52.270;20.978;2022-09-21T10:54:07;15.70;99.90
23532;DHT22;11943;52.270;20.978;2022-09-21T10:56:32;15.80;99.90
23532;DHT22;11943;52.270;20.978;2022-09-21T11:01:43;15.50;99.90
23532;DHT22;11943;52.270;20.978;2022-09-21T11:04:15;15.20;99.90
23532;DHT22;11943;52.270;20.978;2022-09-21T11:06:42;15.20;99.90
23532;DHT22;11943;52.270;20.978;2022-09-21T11:10:10;15.30;99.90
23532;DHT22;11943;52.270;20.978;2022-09-21T11:14:49;15.60;99.90
23532;DHT22;11943;52.270;20.978;2022-09-21T11:17:19;16.20;99.90
23532;DHT22;11943;52.270;20.978;2022-09-21T11:19:54;16.30;99.90
23532;DHT22;11943;52.270;20.978;2022-09-21T11:34:59;15.50;99.90
23532;DHT22;11943;52.270;20.978;2022-09-21T11:48:16;15.80;99.90
23532;DHT22;11943;52.270;20.978;2022-09-21T11:56:09;16.10;96.90
23532;DHT22;11943;52.270;20.978;2022-09-21T11:58:41;16.40;98.30
23532;DHT22;11943;52.270;20.978;2022-09-21T12:08:56;16.90;96.70
23532;DHT22;11943;52.270;20.978;2022-09-21T12:16:50;17.10;93.30
23532;DHT22;11943;52.270;20.978;2022-09-21T12:19:24;16.70;95.40
23532;DHT22;11943;52.270;20.978;2022-09-21T12:22:05;16.50;97.50
23532;DHT22;11943;52.270;20.978;2022-09-21T12:24:34;16.70;97.20
23532;DHT22;11943;52.270;20.978;2022-09-21T12:27:14;16.80;95.40
23532;DHT22;11943;52.270;20.978;2022-09-21T12:29:44;16.90;95.50
23532;DHT22;11943;52.270;20.978;2022-09-21T12:32:32;17.00;95.80
23532;DHT22;11943;52.270;20.978;2022-09-21T12:35:02;17.10;93.90
23532;DHT22;11943;52.270;20.978;2022-09-21T12:37:35;17.10;93.00
23532;DHT22;11943;52.270;20.978;2022-09-21T12:40:06;17.20;93.10
23532;DHT22;11943;52.270;20.978;2022-09-21T12:42:41;17.10;94.10
23532;DHT22;11943;52.270;20.978;2022-09-21T12:45:14;17.00;92.60
23532;DHT22;11943;52.270;20.978;2022-09-21T12:50:20;16.90;91.20
23532;DHT22;11943;52.270;20.978;2022-09-21T12:52:47;16.70;92.70
23532;DHT22;11943;52.270;20.978;2022-09-21T12:55:27;16.30;92.50
23532;DHT22;11943;52.270;20.978;2022-09-21T13:00:33;16.10;94.00
23532;DHT22;11943;52.270;20.978;2022-09-21T13:03:06;16.10;94.60
23532;DHT22;11943;52.270;20.978;2022-09-21T13:05:39;16.20;95.00
23532;DHT22;11943;52.270;20.978;2022-09-21T13:08:09;16.00;94.70
23532;DHT22;11943;52.270;20.978;2022-09-21T13:10:37;15.60;98.10
23532;DHT22;11943;52.270;20.978;2022-09-21T13:13:05;15.50;99.90
23532;DHT22;11943;52.270;20.978;2022-09-21T13:15:42;15.00;99.90
23532;DHT22;11943;52.270;20.978;2022-09-21T13:18:16;14.60;99.90
23532;DHT22;11943;52.270;20.978;2022-09-21T13:20:42;14.40;99.90
23532;DHT22;11943;52.270;20.978;2022-09-21T13:23:15;14.20;99.90
23532;DHT22;11943;52.270;20.978;2022-09-21T13:25:41;14.30;99.90
23532;DHT22;11943;52.270;20.978;2022-09-21T13:30:47;14.60;99.90
23532;DHT22;11943;52.270;20.978;2022-09-21T13:40:48;15.00;99.90
23532;DHT22;11943;52.270;20.978;2022-09-21T13:43:20;14.90;99.90
23532;DHT22;11943;52.270;20.978;2022-09-21T13:45:50;14.90;99.90
23532;DHT22;11943;52.270;20.978;2022-09-21T13:48:20;14.80;99.90
23532;DHT22;11943;52.270;20.978;2022-09-21T13:50:56;14.80;99.90
23532;DHT22;11943;52.270;20.978;2022-09-21T13:53:26;14.90;99.90
23532;DHT22;11943;52.270;20.978;2022-09-21T13:56:15;15.10;99.90
23532;DHT22;11943;52.270;20.978;2022-09-21T13:58:42;15.10;99.90
23532;DHT22;11943;52.270;20.978;2022-09-21T14:01:14;15.10;99.90
23532;DHT22;11943;52.270;20.978;2022-09-21T14:03:40;15.10;99.90
23532;DHT22;11943;52.270;20.978;2022-09-21T14:06:17;15.20;99.90
23532;DHT22;11943;52.270;20.978;2022-09-21T14:08:46;15.10;99.90
23532;DHT22;11943;52.270;20.978;2022-09-21T14:11:14;15.10;99.90
23532;DHT22;11943;52.270;20.978;2022-09-21T14:13:44;14.90;99.90
23532;DHT22;11943;52.270;20.978;2022-09-21T14:24:46;15.20;99.90
23532;DHT22;11943;52.270;20.978;2022-09-21T14:33:17;15.50;99.90
23532;DHT22;11943;52.270;20.978;2022-09-21T14:35:24;15.50;99.90
23532;DHT22;11943;52.270;20.978;2022-09-21T14:37:51;15.50;99.90
23532;DHT22;11943;52.270;20.978;2022-09-21T14:40:38;15.50;99.90
23532;DHT22;11943;52.270;20.978;2022-09-21T14:43:11;15.60;99.90
23532;DHT22;11943;52.270;20.978;2022-09-21T14:51:15;15.40;99.90
23532;DHT22;11943;52.270;20.978;2022-09-21T15:04:03;15.20;99.90
23532;DHT22;11943;52.270;20.978;2022-09-21T15:06:33;15.10;99.90
23532;DHT22;11943;52.270;20.978;2022-09-21T15:12:14;15.00;99.90
23532;DHT22;11943;52.270;20.978;2022-09-21T15:14:43;15.10;99.90
23532;DHT22;11943;52.270;20.978;2022-09-21T15:17:26;15.20;99.90
23532;DHT22;11943;52.270;20.978;2022-09-21T15:19:56;15.20;99.90
23532;DHT22;11943;52.270;20.978;2022-09-21T15:22:23;15.10;99.90
23532;DHT22;11943;52.270;20.978;2022-09-21T15:24:53;15.10;99.90
23532;DHT22;11943;52.270;20.978;2022-09-21T15:27:19;14.90;99.90
23532;DHT22;11943;52.270;20.978;2022-09-21T15:29:52;14.90;99.90
23532;DHT22;11943;52.270;20.978;2022-09-21T15:32:34;14.80;99.90
23532;DHT22;11943;52.270;20.978;2022-09-21T15:35:00;14.60;99.90
23532;DHT22;11943;52.270;20.978;2022-09-21T15:37:27;14.50;99.90
23532;DHT22;11943;52.270;20.978;2022-09-21T15:39:59;14.50;99.90
23532;DHT22;11943;52.270;20.978;2022-09-21T15:42:25;14.40;99.90
23532;DHT22;11943;52.270;20.978;2022-09-21T15:44:53;14.30;99.90
23532;DHT22;11943;52.270;20.978;2022-09-21T15:47:30;14.20;99.90
23532;DHT22;11943;52.270;20.978;2022-09-21T15:49:57;14.10;99.90
23532;DHT22;11943;52.270;20.978;2022-09-21T15:52:25;13.90;99.90
23532;DHT22;11943;52.270;20.978;2022-09-21T15:54:53;14.00;99.90
23532;DHT22;11943;52.270;20.978;2022-09-21T15:59:58;13.60;99.90
23532;DHT22;11943;52.270;20.978;2022-09-21T16:02:24;13.50;99.90
23532;DHT22;11943;52.270;20.978;2022-09-21T16:04:50;13.30;99.90
23532;DHT22;11943;52.270;20.978;2022-09-21T16:07:33;13.20;99.90
23532;DHT22;11943;52.270;20.978;2022-09-21T16:09:59;13.00;99.90
23532;DHT22;11943;52.270;20.978;2022-09-21T16:14:51;12.90;99.90
23532;DHT22;11943;52.270;20.978;2022-09-21T16:17:24;12.90;99.90
23532;DHT22;11943;52.270;20.978;2022-09-21T16:22:27;12.90;99.90
23532;DHT22;11943;52.270;20.978;2022-09-21T16:24:55;12.80;99.90
23532;DHT22;11943;52.270;20.978;2022-09-21T16:27:22;12.70;99.90
23532;DHT22;11943;52.270;20.978;2022-09-21T16:29:47;12.70;99.90
23532;DHT22;11943;52.270;20.978;2022-09-21T16:34:45;12.60;99.90
23532;DHT22;11943;52.270;20.978;2022-09-21T16:39:50;12.60;99.90
23532;DHT22;11943;52.270;20.978;2022-09-21T16:42:16;12.60;99.90
23532;DHT22;11943;52.270;20.978;2022-09-21T16:44:41;12.60;99.90
23532;DHT22;11943;52.270;20.978;2022-09-21T16:47:13;12.50;99.90
23532;DHT22;11943;52.270;20.978;2022-09-21T16:49:39;12.50;99.90
23532;DHT22;11943;52.270;20.978;2022-09-21T16:52:05;12.70;99.90
23532;DHT22;11943;52.270;20.978;2022-09-21T16:54:32;12.40;99.90
23532;DHT22;11943;52.270;20.978;2022-09-21T16:57:00;12.40;99.90
23532;DHT22;11943;52.270;20.978;2022-09-21T16:59:26;12.40;99.90
23532;DHT22;11943;52.270;20.978;2022-09-21T17:01:52;12.40;99.90
23532;DHT22;11943;52.270;20.978;2022-09-21T17:04:19;12.30;99.90
23532;DHT22;11943;52.270;20.978;2022-09-21T17:06:46;12.30;99.90
23532;DHT22;11943;52.270;20.978;2022-09-21T17:09:16;12.30;99.90
23532;DHT22;11943;52.270;20.978;2022-09-21T17:11:42;12.20;99.90
23532;DHT22;11943;52.270;20.978;2022-09-21T17:14:10;12.20;99.90
23532;DHT22;11943;52.270;20.978;2022-09-21T17:16:40;12.30;99.90
23532;DHT22;11943;52.270;20.978;2022-09-21T17:19:07;12.20;99.90
23532;DHT22;11943;52.270;20.978;2022-09-21T17:21:33;12.10;99.90
23532;DHT22;11943;52.270;20.978;2022-09-21T17:23:58;12.10;99.90
23532;DHT22;11943;52.270;20.978;2022-09-21T17:26:24;12.10;99.90
23532;DHT22;11943;52.270;20.978;2022-09-21T17:28:50;12.10;99.90
23532;DHT22;11943;52.270;20.978;2022-09-21T17:31:17;12.00;99.90
23532;DHT22;11943;52.270;20.978;2022-09-21T17:33:45;11.90;99.90
23532;DHT22;11943;52.270;20.978;2022-09-21T17:36:12;11.90;99.90
23532;DHT22;11943;52.270;20.978;2022-09-21T17:38:37;11.90;99.90
23532;DHT22;11943;52.270;20.978;2022-09-21T17:41:05;11.90;99.90
23532;DHT22;11943;52.270;20.978;2022-09-21T17:46:09;11.80;99.90
23532;DHT22;11943;52.270;20.978;2022-09-21T17:48:37;10.10;99.90
23532;DHT22;11943;52.270;20.978;2022-09-21T17:51:03;11.80;99.90
23532;DHT22;11943;52.270;20.978;2022-09-21T17:53:29;11.80;99.90
23532;DHT22;11943;52.270;20.978;2022-09-21T17:56:49;11.80;99.90
23532;DHT22;11943;52.270;20.978;2022-09-21T17:59:00;11.80;99.90
23532;DHT22;11943;52.270;20.978;2022-09-21T18:01:36;11.70;99.90
23532;DHT22;11943;52.270;20.978;2022-09-21T18:04:04;11.70;99.90
23532;DHT22;11943;52.270;20.978;2022-09-21T18:06:29;11.70;99.90
23532;DHT22;11943;52.270;20.978;2022-09-21T18:08:55;11.70;99.90
23532;DHT22;11943;52.270;20.978;2022-09-21T18:14:18;11.60;99.90
23532;DHT22;11943;52.270;20.978;2022-09-21T18:17:01;11.60;99.90
23532;DHT22;11943;52.270;20.978;2022-09-21T18:22:12;11.60;99.90
23532;DHT22;11943;52.270;20.978;2022-09-21T18:24:39;11.60;99.90
23532;DHT22;11943;52.270;20.978;2022-09-21T18:27:05;11.60;99.90
23532;DHT22;11943;52.270;20.978;2022-09-21T18:29:31;11.60;99.90